Time;durP1;ratioP1;P1;durP2;ratioP2;P2;SDS_P1;SDS_P2;PMS_P1;PMS_P2;Temp;Humidity;BMP_temperature;BMP_pressure;BME280_temperature;BME280_humidity;BME280_pressure;Samples;Min_cycle;Max_cycle;Signal;HPM_P1;HPM_P2
2023/09/11 00:01:36;;;;;;;5.17;4.70;;;25.30;92.20;;;;;;6193807;23;20403;-94
2023/09/11 00:04:03;;;;;;;5.03;4.63;;;25.30;92.20;;;;;;6163554;23;20408;-85
2023/09/11 00:06:29;;;;;;;5.33;4.83;;;25.30;92.60;;;;;;6167085;23;20395;-96
2023/09/11 00:09:00;;;;;;;4.50;4.20;;;25.20;92.20;;;;;;6164948;23;20403;-85
2023/09/11 00:11:28;;;;;;;4.60;4.30;;;25.30;92.20;;;;;;6164830;23;20384;-85
2023/09/11 00:13:55;;;;;;;4.20;3.90;;;25.20;92.20;;;;;;6165892;23;20407;-85
2023/09/11 00:16:21;;;;;;;5.03;4.63;;;25.30;92.30;;;;;;6166137;23;20410;-85
2023/09/11 00:18:48;;;;;;;4.73;4.43;;;25.30;92.30;;;;;;6164285;23;20403;-85
2023/09/11 00:21:15;;;;;;;5.00;4.40;;;25.30;92.30;;;;;;6165834;23;20499;-85
2023/09/11 00:23:42;;;;;;;4.57;4.17;;;25.20;92.30;;;;;;6166590;23;20806;-85
2023/09/11 00:26:10;;;;;;;5.00;4.60;;;25.30;92.30;;;;;;6164320;23;20447;-87
2023/09/11 00:28:38;;;;;;;6.40;4.70;;;25.20;92.30;;;;;;6165179;23;20490;-92
2023/09/11 00:31:05;;;;;;;4.57;4.27;;;25.20;92.30;;;;;;6166198;23;20495;-89
2023/09/11 00:33:32;;;;;;;4.60;4.27;;;25.20;92.30;;;;;;6165225;23;20750;-85
2023/09/11 00:35:58;;;;;;;5.00;4.60;;;25.20;92.30;;;;;;6169342;23;20389;-94
2023/09/11 00:38:25;;;;;;;5.50;4.87;;;25.20;92.30;;;;;;6163253;23;20451;-85
2023/09/11 00:40:53;;;;;;;5.13;4.70;;;25.20;92.30;;;;;;6162521;23;20410;-85
2023/09/11 00:43:20;;;;;;;4.50;4.20;;;25.20;92.30;;;;;;6165090;23;20408;-93
2023/09/11 00:45:50;;;;;;;4.70;4.40;;;25.20;92.30;;;;;;6165952;23;20534;-87
2023/09/11 00:48:18;;;;;;;4.40;4.10;;;25.20;92.40;;;;;;6163276;23;20457;-86
2023/09/11 00:50:45;;;;;;;4.67;4.33;;;25.20;92.30;;;;;;6164473;23;20390;-86
2023/09/11 00:53:12;;;;;;;4.47;4.07;;;25.20;92.30;;;;;;6165377;23;20412;-86
2023/09/11 00:55:40;;;;;;;4.83;4.53;;;25.20;92.40;;;;;;6163774;23;20815;-87
2023/09/11 00:58:07;;;;;;;4.97;4.60;;;25.20;92.40;;;;;;6162745;23;20404;-86
2023/09/11 01:00:34;;;;;;;5.27;4.87;;;25.20;92.40;;;;;;6164139;23;20411;-86
2023/09/11 01:03:02;;;;;;;5.60;5.10;;;25.20;92.40;;;;;;6165066;23;20438;-86
2023/09/11 01:05:30;;;;;;;9.67;5.07;;;25.20;92.40;;;;;;6163274;23;20463;-87
2023/09/11 01:07:56;;;;;;;4.40;4.10;;;25.20;92.40;;;;;;6165362;23;20467;-86
2023/09/11 01:10:24;;;;;;;5.10;4.60;;;25.20;92.40;;;;;;6165210;23;20422;-87
2023/09/11 01:12:51;;;;;;;7.17;4.63;;;25.20;92.40;;;;;;6163084;23;20415;-86
2023/09/11 01:15:18;;;;;;;5.30;4.80;;;25.20;92.40;;;;;;6166677;23;20463;-87
2023/09/11 01:17:51;;;;;;;4.73;4.43;;;25.20;92.40;;;;;;6162714;23;20990;-86
2023/09/11 01:20:54;;;;;;;5.63;5.10;;;25.40;92.50;;;;;;6166483;23;20392;-87
2023/09/11 01:23:59;;;;;;;5.27;4.87;;;25.20;92.40;;;;;;6165221;23;20392;-87
2023/09/11 01:26:51;;;;;;;4.80;4.50;;;25.20;92.40;;;;;;6165478;23;20434;-87
2023/09/11 01:29:24;;;;;;;5.20;4.80;;;25.20;92.40;;;;;;6164477;23;20418;-86
2023/09/11 01:31:53;;;;;;;5.47;5.07;;;25.20;92.40;;;;;;6163665;23;20400;-86
2023/09/11 01:34:20;;;;;;;5.77;4.90;;;25.20;92.40;;;;;;6166441;23;20824;-87
2023/09/11 01:36:47;;;;;;;5.10;4.70;;;25.20;92.40;;;;;;6166623;23;20494;-86
2023/09/11 01:39:14;;;;;;;5.10;4.70;;;25.20;92.40;;;;;;6165646;23;20498;-86
2023/09/11 01:41:43;;;;;;;6.07;5.37;;;25.20;92.40;;;;;;6168088;23;20412;-86
2023/09/11 01:44:16;;;;;;;6.50;6.00;;;25.20;92.40;;;;;;6167578;23;20452;-87
2023/09/11 01:46:46;;;;;;;6.20;5.60;;;25.20;92.40;;;;;;6163815;23;20833;-86
2023/09/11 01:49:14;;;;;;;5.80;5.40;;;25.20;92.40;;;;;;6167849;23;20809;-86
2023/09/11 01:51:42;;;;;;;6.07;5.67;;;25.20;92.50;;;;;;6165202;23;20408;-87
2023/09/11 01:54:10;;;;;;;5.80;5.20;;;25.20;92.50;;;;;;6165351;23;20420;-88
2023/09/11 01:56:37;;;;;;;7.30;5.67;;;25.20;92.40;;;;;;6166160;23;20412;-86
2023/09/11 01:59:04;;;;;;;5.77;5.27;;;25.20;92.40;;;;;;6162671;23;20412;-86
2023/09/11 02:01:31;;;;;;;5.87;5.00;;;25.20;92.50;;;;;;6165122;23;20454;-86
2023/09/11 02:03:59;;;;;;;5.73;5.23;;;25.20;92.40;;;;;;6139551;23;20412;-86
2023/09/11 02:06:26;;;;;;;5.23;4.83;;;25.20;92.50;;;;;;6183489;23;20518;-86
2023/09/11 02:08:54;;;;;;;5.70;5.20;;;25.20;92.60;;;;;;6191095;23;20481;-86
2023/09/11 02:11:22;;;;;;;6.70;5.17;;;25.20;92.50;;;;;;6181354;23;20510;-86
2023/09/11 02:13:48;;;;;;;5.33;4.93;;;25.20;92.50;;;;;;6195273;23;20411;-86
2023/09/11 02:18:41;;;;;;;6.27;5.67;;;25.20;92.50;;;;;;6196664;23;20425;-86
2023/09/11 02:21:09;;;;;;;5.77;5.27;;;25.20;92.50;;;;;;6170102;23;20222;-86
2023/09/11 02:23:35;;;;;;;6.00;5.50;;;25.20;92.50;;;;;;6198468;23;20450;-87
2023/09/11 02:26:02;;;;;;;6.43;5.50;;;25.20;92.40;;;;;;6198726;23;20444;-86
2023/09/11 02:28:31;;;;;;;5.87;5.17;;;25.20;92.50;;;;;;6196450;23;20413;-86
2023/09/11 02:30:58;;;;;;;7.83;5.10;;;25.20;92.50;;;;;;6197582;23;20773;-86
2023/09/11 02:33:25;;;;;;;6.20;5.70;;;25.20;92.90;;;;;;6196218;23;20406;-87
2023/09/11 02:35:56;;;;;;;5.97;5.47;;;25.20;92.50;;;;;;6197413;23;20391;-86
2023/09/11 02:38:24;;;;;;;6.67;6.07;;;25.20;92.50;;;;;;6198457;23;20435;-86
2023/09/11 02:40:51;;;;;;;6.17;5.57;;;25.20;92.50;;;;;;6195494;23;20525;-86
2023/09/11 02:43:18;;;;;;;5.47;4.97;;;25.20;92.50;;;;;;6172671;23;20555;-86
2023/09/11 02:45:45;;;;;;;6.20;5.70;;;25.20;92.50;;;;;;6169648;23;20546;-86
2023/09/11 02:48:12;;;;;;;5.40;5.00;;;25.20;92.50;;;;;;6170766;23;20420;-87
2023/09/11 02:50:39;;;;;;;8.23;5.33;;;25.20;92.50;;;;;;6167035;23;20815;-86
2023/09/11 02:53:08;;;;;;;7.97;5.80;;;25.20;92.50;;;;;;6173321;23;20415;-87
2023/09/11 02:55:38;;;;;;;5.60;5.17;;;25.20;92.50;;;;;;6169753;23;20411;-87
2023/09/11 02:58:05;;;;;;;6.97;5.80;;;25.20;92.50;;;;;;6171420;23;20906;-86
2023/09/11 03:00:34;;;;;;;6.20;5.70;;;25.20;92.50;;;;;;6168938;23;20455;-86
2023/09/11 03:03:02;;;;;;;7.10;6.50;;;25.20;92.50;;;;;;6169366;23;20441;-87
2023/09/11 03:05:31;;;;;;;6.13;5.70;;;25.20;92.50;;;;;;6166657;23;20454;-87
2023/09/11 03:07:58;;;;;;;7.83;5.67;;;25.20;92.50;;;;;;6167438;23;20398;-87
2023/09/11 03:10:25;;;;;;;5.83;5.37;;;25.20;92.60;;;;;;6169325;23;20399;-86
2023/09/11 03:12:53;;;;;;;10.73;5.70;;;25.20;92.50;;;;;;6170452;23;20462;-87
2023/09/11 03:15:21;;;;;;;6.03;5.43;;;25.20;92.50;;;;;;6170658;23;20422;-86
2023/09/11 03:17:50;;;;;;;7.63;6.00;;;25.20;92.50;;;;;;6170161;23;20443;-87
2023/09/11 03:20:17;;;;;;;7.47;6.87;;;25.20;92.50;;;;;;6173498;23;20759;-87
2023/09/11 03:22:44;;;;;;;5.80;5.20;;;25.20;92.50;;;;;;6168082;23;20391;-87
2023/09/11 03:25:11;;;;;;;8.77;5.60;;;25.20;92.50;;;;;;6169171;23;20415;-87
2023/09/11 03:27:38;;;;;;;7.03;6.03;;;25.20;92.50;;;;;;6167124;23;20408;-87
2023/09/11 03:30:07;;;;;;;6.57;6.00;;;25.20;92.50;;;;;;6167133;23;20403;-87
2023/09/11 03:32:34;;;;;;;7.00;6.40;;;25.20;92.50;;;;;;6169151;23;20435;-86
2023/09/11 03:35:01;;;;;;;6.70;6.10;;;25.20;92.50;;;;;;6170750;23;20428;-86
2023/09/11 03:37:28;;;;;;;6.30;5.70;;;25.20;92.50;;;;;;6171285;23;20415;-88
2023/09/11 03:39:57;;;;;;;6.13;5.63;;;25.20;92.50;;;;;;6165463;23;20467;-87
2023/09/11 03:42:23;;;;;;;6.80;5.67;;;25.10;92.40;;;;;;6164984;23;20433;-87
2023/09/11 03:44:50;;;;;;;5.43;4.93;;;25.20;92.50;;;;;;6169598;23;20412;-86
2023/09/11 03:47:18;;;;;;;5.60;5.10;;;25.20;92.50;;;;;;6164808;23;20499;-86
2023/09/11 03:49:45;;;;;;;7.10;5.90;;;25.20;92.50;;;;;;6167529;23;20511;-86
2023/09/11 03:52:12;;;;;;;6.70;6.10;;;25.10;92.40;;;;;;6164270;23;20415;-86
2023/09/11 03:54:39;;;;;;;6.33;5.67;;;25.10;92.40;;;;;;6162787;23;20412;-87
2023/09/11 03:57:06;;;;;;;6.10;5.60;;;25.10;92.40;;;;;;6165867;23;20414;-87
2023/09/11 03:59:33;;;;;;;6.80;6.20;;;25.20;92.40;;;;;;6166641;23;20399;-87
2023/09/11 04:02:00;;;;;;;6.23;5.63;;;25.10;92.40;;;;;;6166967;23;20471;-86
2023/09/11 04:04:29;;;;;;;6.83;6.17;;;25.10;92.40;;;;;;6190408;23;20502;-86
2023/09/11 04:06:56;;;;;;;6.53;5.87;;;25.10;92.40;;;;;;6171912;23;20506;-86
2023/09/11 04:09:22;;;;;;;6.80;6.30;;;25.10;92.40;;;;;;6192705;23;20414;-86
2023/09/11 04:11:49;;;;;;;6.00;5.50;;;25.10;92.40;;;;;;6135998;23;20699;-86
2023/09/11 04:14:16;;;;;;;7.03;6.43;;;25.10;92.40;;;;;;6135237;23;20413;-86
2023/09/11 04:16:43;;;;;;;6.00;5.33;;;25.10;92.40;;;;;;6134504;23;20396;-86
2023/09/11 04:19:11;;;;;;;7.10;6.40;;;25.10;92.40;;;;;;6138150;23;20420;-86
2023/09/11 04:21:39;;;;;;;6.50;5.90;;;25.10;92.40;;;;;;6172450;23;20450;-87
2023/09/11 04:24:12;;;;;;;6.23;5.70;;;25.20;92.40;;;;;;6190803;23;20725;-87
2023/09/11 04:26:39;;;;;;;7.80;6.27;;;25.10;92.40;;;;;;6196477;23;20427;-87
2023/09/11 04:29:05;;;;;;;6.70;6.00;;;25.20;92.40;;;;;;6194026;23;20501;-87
2023/09/11 04:31:32;;;;;;;6.17;5.60;;;25.10;92.40;;;;;;6193899;23;20435;-86
2023/09/11 04:33:59;;;;;;;6.70;6.10;;;25.10;92.30;;;;;;6190650;23;20482;-86
2023/09/11 04:36:26;;;;;;;7.67;6.50;;;25.10;92.30;;;;;;6195193;23;20977;-86
2023/09/11 04:38:54;;;;;;;6.60;6.10;;;25.10;92.30;;;;;;6192732;23;20529;-87
2023/09/11 04:41:21;;;;;;;7.57;6.53;;;25.10;92.30;;;;;;6190790;23;20411;-87
2023/09/11 04:43:48;;;;;;;11.63;6.07;;;25.10;92.30;;;;;;6193295;23;20501;-87
2023/09/11 04:46:16;;;;;;;5.83;5.43;;;25.10;92.30;;;;;;6193974;23;20486;-86
2023/09/11 04:48:43;;;;;;;7.67;6.83;;;25.10;92.30;;;;;;6197573;23;20410;-86
2023/09/11 04:51:10;;;;;;;6.20;5.60;;;25.10;92.30;;;;;;6195266;23;20694;-86
2023/09/11 04:53:37;;;;;;;7.13;6.43;;;25.10;92.30;;;;;;6195883;23;20897;-87
2023/09/11 04:56:05;;;;;;;6.53;5.97;;;25.10;92.20;;;;;;6199037;23;20395;-87
2023/09/11 04:58:32;;;;;;;6.67;6.00;;;25.10;92.30;;;;;;6198436;23;20393;-87
2023/09/11 05:00:59;;;;;;;6.73;6.10;;;25.10;92.20;;;;;;6194936;23;20485;-87
2023/09/11 05:03:26;;;;;;;6.83;6.13;;;25.10;92.20;;;;;;6198791;22;20450;-87
2023/09/11 05:05:53;;;;;;;7.20;6.30;;;25.10;92.20;;;;;;6201478;23;20437;-87
2023/09/11 05:08:22;;;;;;;6.67;6.07;;;25.10;92.20;;;;;;6174237;23;20475;-87
2023/09/11 05:10:49;;;;;;;8.40;6.67;;;25.10;92.20;;;;;;6171151;23;20415;-88
2023/09/11 05:13:19;;;;;;;7.77;6.20;;;25.10;92.20;;;;;;6164253;23;20467;-87
2023/09/11 05:15:48;;;;;;;7.97;6.80;;;25.10;92.20;;;;;;6139422;23;20431;-86
2023/09/11 05:18:15;;;;;;;7.80;7.10;;;25.10;92.20;;;;;;6166621;23;20783;-88
2023/09/11 05:20:42;;;;;;;10.73;8.37;;;25.10;92.20;;;;;;6161868;23;20499;-90
2023/09/11 05:23:08;;;;;;;9.33;8.53;;;25.10;92.10;;;;;;6155818;23;20412;-90
2023/09/11 05:25:37;;;;;;;11.00;9.20;;;25.10;91.80;;;;;;6155774;23;20404;-89
2023/09/11 05:28:04;;;;;;;12.33;9.17;;;25.00;91.70;;;;;;6155690;23;20396;-89
2023/09/11 05:30:32;;;;;;;10.97;8.60;;;24.90;91.80;;;;;;6155665;23;20422;-89
2023/09/11 05:32:58;;;;;;;11.83;9.90;;;24.80;92.00;;;;;;6156245;23;20424;-88
2023/09/11 05:35:25;;;;;;;13.60;9.97;;;24.70;92.10;;;;;;6156254;23;20483;-90
2023/09/11 05:37:52;;;;;;;17.23;9.93;;;24.70;92.20;;;;;;6156384;23;20494;-87
2023/09/11 05:40:19;;;;;;;13.20;9.70;;;24.60;92.30;;;;;;6155800;23;20965;-87
2023/09/11 05:42:46;;;;;;;13.07;9.10;;;24.60;92.40;;;;;;6156152;23;20707;-88
2023/09/11 05:45:12;;;;;;;16.97;9.57;;;24.50;92.50;;;;;;6156158;23;20742;-89
2023/09/11 05:47:41;;;;;;;16.13;10.30;;;24.50;92.60;;;;;;6156267;23;20453;-88
2023/09/11 05:50:09;;;;;;;14.77;9.17;;;24.50;92.70;;;;;;6157314;23;20734;-90
2023/09/11 05:52:36;;;;;;;13.57;10.77;;;24.40;92.80;;;;;;6163989;23;20447;-88
2023/09/11 05:55:09;;;;;;;13.68;10.27;;;24.40;92.90;;;;;;6164078;23;20411;-96
2023/09/11 05:57:35;;;;;;;17.70;10.77;;;24.50;93.10;;;;;;6165241;23;20167;-95
2023/09/11 06:00:09;;;;;;;14.60;9.70;;;24.50;93.20;;;;;;6171713;23;20431;-91
2023/09/11 06:02:36;;;;;;;13.77;10.70;;;24.50;93.20;;;;;;6166061;23;20392;-96
2023/09/11 06:05:05;;;;;;;15.83;10.50;;;24.50;93.20;;;;;;6165545;23;20471;-96
2023/09/11 06:07:32;;;;;;;16.73;10.53;;;24.50;93.30;;;;;;6179921;23;20541;-87
2023/09/11 06:09:59;;;;;;;12.13;10.40;;;24.40;93.40;;;;;;6194452;23;20425;-96
2023/09/11 06:12:29;;;;;;;22.87;10.67;;;24.40;93.50;;;;;;6192567;23;20486;-96
2023/09/11 06:14:56;;;;;;;20.00;11.87;;;24.40;93.60;;;;;;6193371;23;20387;-96
2023/09/11 06:17:23;;;;;;;18.93;10.13;;;24.40;93.70;;;;;;6191889;23;20422;-92
2023/09/11 06:19:49;;;;;;;21.13;11.57;;;24.40;93.80;;;;;;6192286;23;20398;-89
2023/09/11 06:22:17;;;;;;;15.37;10.00;;;24.40;94.00;;;;;;6192933;23;20413;-96
2023/09/11 06:24:44;;;;;;;11.53;9.60;;;24.60;94.50;;;;;;6193751;23;20413;-87
2023/09/11 06:27:13;;;;;;;10.80;9.00;;;24.40;94.20;;;;;;6192658;23;20452;-87
2023/09/11 06:29:40;;;;;;;18.73;9.07;;;24.40;94.30;;;;;;6188612;23;20418;-91
2023/09/11 06:32:11;;;;;;;17.30;10.20;;;24.40;94.40;;;;;;6181569;23;20945;-89
2023/09/11 06:34:39;;;;;;;19.27;10.20;;;24.50;94.60;;;;;;6187196;23;20427;-93
2023/09/11 06:37:09;;;;;;;20.50;10.33;;;24.50;94.60;;;;;;6187262;23;20418;-95
2023/09/11 06:39:37;;;;;;;15.20;10.60;;;24.50;94.60;;;;;;6186815;23;20409;-89
2023/09/11 06:42:04;;;;;;;12.00;10.10;;;24.50;94.70;;;;;;6187273;23;20491;-94
2023/09/11 06:44:31;;;;;;;14.23;10.10;;;24.50;94.90;;;;;;6187195;23;20403;-91
2023/09/11 06:46:58;;;;;;;19.13;10.57;;;24.50;95.00;;;;;;6187264;23;20457;-91
2023/09/11 06:49:25;;;;;;;16.27;11.53;;;24.60;95.10;;;;;;6187285;23;20491;-90
2023/09/11 06:51:52;;;;;;;15.60;9.83;;;24.60;95.20;;;;;;6187262;23;20398;-90
2023/09/11 06:54:19;;;;;;;16.20;10.80;;;24.60;95.20;;;;;;6187054;23;20437;-89
2023/09/11 06:56:47;;;;;;;13.47;9.90;;;24.60;95.30;;;;;;6186733;23;20403;-88
2023/09/11 06:59:14;;;;;;;23.93;10.83;;;24.60;95.30;;;;;;6187108;23;20414;-90
2023/09/11 07:01:41;;;;;;;15.13;10.80;;;24.60;95.30;;;;;;6186821;23;20801;-90
2023/09/11 07:04:10;;;;;;;14.83;10.50;;;24.60;95.40;;;;;;6186773;23;20411;-90
2023/09/11 07:06:37;;;;;;;15.13;9.60;;;24.70;95.50;;;;;;6186455;23;20435;-90
2023/09/11 07:09:05;;;;;;;16.00;10.17;;;24.70;95.50;;;;;;6186437;23;20883;-92
2023/09/11 07:11:31;;;;;;;13.83;10.40;;;24.70;95.60;;;;;;6186549;23;20405;-90
2023/09/11 07:14:00;;;;;;;15.20;9.70;;;24.70;95.60;;;;;;6187006;23;20734;-94
2023/09/11 07:16:26;;;;;;;11.03;9.57;;;24.70;95.60;;;;;;6186774;23;20493;-90
2023/09/11 07:18:55;;;;;;;9.50;7.90;;;24.90;95.30;;;;;;6185718;23;20874;-91
2023/09/11 07:21:22;;;;;;;9.40;8.47;;;24.80;94.80;;;;;;6186917;23;20482;-90
2023/09/11 07:23:49;;;;;;;9.93;8.27;;;24.80;94.50;;;;;;6186645;23;20664;-91
2023/09/11 07:26:16;;;;;;;17.63;8.17;;;24.80;94.30;;;;;;6186415;23;20883;-91
2023/09/11 07:28:56;;;;;;;11.10;8.40;;;24.80;94.10;;;;;;6186313;23;20956;-91
2023/09/11 07:31:25;;;;;;;11.30;7.70;;;24.80;94.00;;;;;;6186568;23;20422;-90
2023/09/11 07:33:52;;;;;;;10.07;8.00;;;24.80;93.80;;;;;;6186091;23;20434;-91
2023/09/11 07:36:19;;;;;;;8.90;8.00;;;24.90;93.80;;;;;;6186177;23;20482;-90
2023/09/11 07:38:47;;;;;;;10.53;7.50;;;24.90;93.70;;;;;;6185241;23;20895;-90
2023/09/11 07:41:16;;;;;;;10.83;7.43;;;24.90;94.00;;;;;;6184263;23;20482;-90
2023/09/11 07:43:44;;;;;;;11.40;7.23;;;24.90;93.50;;;;;;6185767;23;20398;-89
2023/09/11 07:46:10;;;;;;;10.20;8.20;;;24.90;93.40;;;;;;6186230;23;20470;-91
2023/09/11 07:48:39;;;;;;;9.20;8.20;;;25.00;93.60;;;;;;6186116;23;20455;-90
2023/09/11 07:51:05;;;;;;;9.97;7.40;;;25.00;93.50;;;;;;6186003;23;20490;-88
2023/09/11 07:53:32;;;;;;;9.10;6.83;;;25.00;93.50;;;;;;6186097;23;20977;-90
2023/09/11 07:55:59;;;;;;;8.43;7.40;;;25.00;93.50;;;;;;6186484;23;20417;-89
2023/09/11 07:58:26;;;;;;;8.07;7.37;;;25.00;93.40;;;;;;6185706;23;20417;-89
2023/09/11 08:00:52;;;;;;;10.30;7.40;;;25.00;93.70;;;;;;6185999;23;20529;-89
2023/09/11 08:03:19;;;;;;;12.00;7.57;;;25.00;93.40;;;;;;6185863;23;20493;-89
2023/09/11 08:05:48;;;;;;;9.10;8.10;;;25.00;93.30;;;;;;6184802;23;20493;-89
2023/09/11 08:08:15;;;;;;;8.17;7.20;;;25.00;93.20;;;;;;6185569;23;20446;-89
2023/09/11 08:10:43;;;;;;;11.57;7.93;;;25.00;93.20;;;;;;6185989;23;20438;-90
2023/09/11 08:13:11;;;;;;;8.03;7.23;;;25.00;93.10;;;;;;6185778;23;20395;-90
2023/09/11 08:15:38;;;;;;;7.30;6.70;;;25.10;93.20;;;;;;6186269;23;20470;-91
2023/09/11 08:18:05;;;;;;;9.50;6.97;;;25.10;93.10;;;;;;6186196;23;20405;-89
2023/09/11 08:20:32;;;;;;;6.73;5.83;;;25.10;93.20;;;;;;6185918;23;20423;-89
2023/09/11 08:23:01;;;;;;;16.13;6.93;;;25.10;93.10;;;;;;6185428;23;20482;-90
2023/09/11 08:25:28;;;;;;;8.87;6.50;;;25.00;93.00;;;;;;6186212;23;20730;-89
2023/09/11 08:27:56;;;;;;;7.77;6.63;;;25.10;93.00;;;;;;6185485;23;20781;-88
2023/09/11 08:30:23;;;;;;;12.33;6.77;;;25.10;93.00;;;;;;6184691;23;20974;-88
2023/09/11 08:32:49;;;;;;;8.13;6.17;;;25.10;93.00;;;;;;6185468;23;20439;-88
2023/09/11 08:35:16;;;;;;;7.57;6.80;;;25.10;93.00;;;;;;6186004;23;20438;-88
2023/09/11 08:37:43;;;;;;;10.13;5.70;;;25.10;92.90;;;;;;6185420;23;20426;-88
2023/09/11 08:40:13;;;;;;;7.33;6.03;;;25.10;92.90;;;;;;6184574;23;20401;-88
2023/09/11 08:42:40;;;;;;;6.57;5.93;;;25.10;92.90;;;;;;6184626;23;20910;-88
2023/09/11 08:45:08;;;;;;;7.37;6.60;;;25.10;92.90;;;;;;6185172;23;20481;-88
2023/09/11 08:47:36;;;;;;;8.10;6.17;;;25.10;92.90;;;;;;6184749;23;20450;-88
2023/09/11 08:50:06;;;;;;;7.00;6.30;;;25.10;92.90;;;;;;6184896;23;20414;-88
2023/09/11 08:52:35;;;;;;;8.40;6.00;;;25.10;92.90;;;;;;6186003;23;20473;-89
2023/09/11 08:55:08;;;;;;;7.43;6.73;;;25.10;92.90;;;;;;6185185;23;20402;-89
2023/09/11 08:57:39;;;;;;;5.63;5.20;;;25.10;92.90;;;;;;6184977;23;20395;-87
2023/09/11 09:00:11;;;;;;;7.40;6.23;;;25.20;93.00;;;;;;6185228;23;20510;-90
2023/09/11 09:02:38;;;;;;;8.37;6.20;;;25.10;92.90;;;;;;6185393;23;20390;-89
2023/09/11 09:05:07;;;;;;;6.63;6.03;;;25.20;93.00;;;;;;6185535;23;20399;-88
2023/09/11 09:07:34;;;;;;;7.80;6.07;;;25.10;93.00;;;;;;6184658;23;20460;-88
2023/09/11 09:10:02;;;;;;;9.07;6.50;;;25.20;93.00;;;;;;6185448;23;20401;-88
2023/09/11 09:12:30;;;;;;;7.00;6.40;;;25.20;93.00;;;;;;6186327;23;20473;-88
2023/09/11 09:14:58;;;;;;;11.77;6.20;;;25.20;93.00;;;;;;6185975;23;20409;-88
2023/09/11 09:17:25;;;;;;;8.17;5.70;;;25.20;92.90;;;;;;6186167;23;20414;-88
2023/09/11 09:19:52;;;;;;;6.53;5.93;;;25.20;92.90;;;;;;6186165;23;20718;-88
2023/09/11 09:22:19;;;;;;;5.73;5.23;;;25.20;92.90;;;;;;6186239;23;20733;-88
2023/09/11 09:24:54;;;;;;;8.27;5.80;;;25.20;92.90;;;;;;6187230;23;20398;-88
2023/09/11 09:27:21;;;;;;;7.37;6.07;;;25.20;92.90;;;;;;6187755;23;20430;-88
2023/09/11 09:29:49;;;;;;;6.53;5.60;;;25.20;92.90;;;;;;6187903;23;20433;-88
2023/09/11 09:32:17;;;;;;;6.90;5.20;;;25.20;92.80;;;;;;6188635;23;20434;-88
2023/09/11 09:34:50;;;;;;;7.53;5.60;;;25.20;92.80;;;;;;6187774;23;20410;-88
2023/09/11 09:37:18;;;;;;;5.53;5.03;;;25.20;92.80;;;;;;6188298;23;20390;-88
2023/09/11 09:39:48;;;;;;;6.70;5.43;;;25.20;92.80;;;;;;6188182;23;20498;-88
2023/09/11 09:42:15;;;;;;;5.90;5.30;;;25.20;92.80;;;;;;6187736;23;20917;-88
2023/09/11 09:44:45;;;;;;;7.07;5.60;;;25.20;92.80;;;;;;6187835;23;20886;-87
2023/09/11 09:47:13;;;;;;;6.43;5.63;;;25.20;92.80;;;;;;6187934;23;20399;-88
2023/09/11 09:49:46;;;;;;;5.03;4.63;;;25.20;92.80;;;;;;6188105;23;20399;-88
2023/09/11 09:52:14;;;;;;;5.87;4.97;;;25.20;92.80;;;;;;6187882;23;20481;-88
2023/09/11 09:54:43;;;;;;;8.00;5.60;;;25.20;92.80;;;;;;6187805;23;20399;-88
2023/09/11 09:57:12;;;;;;;5.70;5.20;;;25.20;92.80;;;;;;6187762;23;20420;-88
2023/09/11 09:59:40;;;;;;;5.90;5.40;;;25.20;92.80;;;;;;6187827;23;20394;-88
2023/09/11 10:02:10;;;;;;;5.87;5.27;;;25.20;92.80;;;;;;6188147;23;20481;-88
2023/09/11 10:04:37;;;;;;;5.43;5.03;;;25.20;92.80;;;;;;6187273;23;20882;-91
2023/09/11 10:07:06;;;;;;;5.17;4.67;;;25.20;92.80;;;;;;6187198;23;20798;-88
2023/09/11 10:09:33;;;;;;;5.07;4.67;;;25.20;92.80;;;;;;6187324;23;20406;-88
2023/09/11 10:12:04;;;;;;;6.17;5.27;;;25.20;92.70;;;;;;6187700;23;20405;-89
2023/09/11 10:14:31;;;;;;;5.30;4.83;;;25.20;92.90;;;;;;6187665;23;20410;-89
2023/09/11 10:16:59;;;;;;;6.37;4.67;;;25.20;92.80;;;;;;6187808;23;20395;-89
2023/09/11 10:19:30;;;;;;;6.10;5.47;;;25.20;92.80;;;;;;6186980;23;20398;-89
2023/09/11 10:21:59;;;;;;;5.60;5.10;;;25.20;92.80;;;;;;6186415;23;20917;-89
2023/09/11 10:24:28;;;;;;;7.53;4.60;;;25.20;92.80;;;;;;6186182;23;20394;-89
2023/09/11 10:26:59;;;;;;;5.50;5.00;;;25.20;92.80;;;;;;6186641;23;20402;-89
2023/09/11 10:29:41;;;;;;;5.37;4.97;;;25.20;92.80;;;;;;6186232;23;20442;-89
2023/09/11 10:32:19;;;;;;;6.37;4.50;;;25.20;92.80;;;;;;6186097;23;20897;-88
2023/09/11 10:34:52;;;;;;;7.23;4.93;;;25.20;92.80;;;;;;6188030;23;20415;-90
2023/09/11 10:37:21;;;;;;;6.00;4.60;;;25.20;92.80;;;;;;6196350;23;20407;-87
2023/09/11 10:39:52;;;;;;;5.97;3.97;;;25.20;92.80;;;;;;6186104;23;20493;-88
2023/09/11 10:42:19;;;;;;;6.90;5.30;;;25.20;92.90;;;;;;6186840;23;20419;-88
2023/09/11 10:44:46;;;;;;;4.90;4.50;;;25.20;92.90;;;;;;6187297;23;20398;-89
2023/09/11 10:47:15;;;;;;;7.90;5.03;;;25.20;92.90;;;;;;6186767;23;20398;-88
2023/09/11 10:49:43;;;;;;;6.60;5.10;;;25.20;92.90;;;;;;6186384;23;20515;-90
2023/09/11 10:52:12;;;;;;;6.77;4.77;;;25.20;92.90;;;;;;6186826;23;20399;-88
2023/09/11 10:54:41;;;;;;;5.03;4.63;;;25.20;93.00;;;;;;6186443;23;20402;-89
2023/09/11 10:57:09;;;;;;;5.17;4.67;;;25.20;93.00;;;;;;6186029;23;20434;-89
2023/09/11 10:59:36;;;;;;;4.43;4.10;;;25.20;92.90;;;;;;6186117;23;20490;-89
2023/09/11 11:02:03;;;;;;;5.93;5.33;;;25.30;92.90;;;;;;6186355;23;20902;-89
2023/09/11 11:04:32;;;;;;;9.80;5.30;;;25.30;92.90;;;;;;6186353;23;20485;-89
2023/09/11 11:07:01;;;;;;;6.03;5.00;;;25.30;92.90;;;;;;6185892;23;20520;-89
2023/09/11 11:09:31;;;;;;;5.50;5.00;;;25.30;92.90;;;;;;6185898;23;20482;-88
2023/09/11 11:11:59;;;;;;;4.83;4.43;;;25.20;92.90;;;;;;6185979;23;20390;-88
2023/09/11 11:14:27;;;;;;;4.50;4.20;;;25.30;92.90;;;;;;6185636;23;20399;-88
2023/09/11 11:16:55;;;;;;;4.80;4.30;;;25.30;92.90;;;;;;6185650;23;20489;-88
2023/09/11 11:22:44;;;;;;;4.77;4.37;;;25.30;92.90;;;;;;6186938;23;20425;-88
2023/09/11 11:25:11;;;;;;;4.50;4.10;;;25.20;92.90;;;;;;6186722;23;20393;-88
2023/09/11 11:27:39;;;;;;;5.60;5.13;;;25.20;92.90;;;;;;6186305;23;20403;-88
2023/09/11 11:30:09;;;;;;;4.40;4.00;;;25.30;92.90;;;;;;6187176;23;20426;-88
2023/09/11 11:32:37;;;;;;;4.87;3.90;;;25.30;92.90;;;;;;6187454;23;20398;-88
2023/09/11 11:35:07;;;;;;;4.80;4.40;;;25.30;92.90;;;;;;6186697;23;20533;-88
2023/09/11 11:37:37;;;;;;;5.43;4.70;;;25.30;92.90;;;;;;6186284;23;20434;-87
2023/09/11 11:40:08;;;;;;;5.00;4.00;;;25.30;92.90;;;;;;6185605;23;20434;-88
2023/09/11 11:42:37;;;;;;;4.00;3.70;;;25.30;92.90;;;;;;6185564;23;20423;-87
2023/09/11 11:45:04;;;;;;;7.03;4.63;;;25.30;92.90;;;;;;6186432;23;20722;-87
2023/09/11 11:47:34;;;;;;;4.33;3.97;;;25.30;92.90;;;;;;6185444;23;20729;-87
2023/09/11 11:50:08;;;;;;;5.20;4.50;;;25.30;92.90;;;;;;6186494;23;20403;-87
2023/09/11 11:52:35;;;;;;;4.30;4.00;;;25.30;92.90;;;;;;6186206;23;20473;-88
2023/09/11 11:55:02;;;;;;;4.90;4.50;;;25.30;92.90;;;;;;6185870;23;20398;-89
2023/09/11 11:57:31;;;;;;;7.77;4.00;;;25.30;92.90;;;;;;6185724;23;20485;-88
2023/09/11 11:59:58;;;;;;;4.03;3.73;;;25.30;93.00;;;;;;6185840;23;20463;-88
2023/09/11 12:02:26;;;;;;;4.87;4.47;;;25.40;93.00;;;;;;6185723;23;20949;-89
2023/09/11 12:04:54;;;;;;;4.70;4.00;;;25.30;93.00;;;;;;6186105;23;20407;-89
2023/09/11 12:07:22;;;;;;;4.50;4.10;;;25.30;93.00;;;;;;6186317;23;20852;-88
2023/09/11 12:09:49;;;;;;;5.40;4.73;;;25.30;93.00;;;;;;6185973;23;20454;-88
2023/09/11 12:12:17;;;;;;;6.17;4.30;;;25.30;93.00;;;;;;6185807;23;20430;-90
2023/09/11 12:14:44;;;;;;;8.00;4.57;;;25.40;93.00;;;;;;6185912;23;20718;-89
2023/09/11 12:17:11;;;;;;;6.53;4.27;;;25.40;93.00;;;;;;6185373;23;20399;-88
2023/09/11 12:19:38;;;;;;;5.23;4.50;;;25.40;93.10;;;;;;6186698;23;20399;-89
2023/09/11 12:22:08;;;;;;;7.10;4.60;;;25.40;93.20;;;;;;6187057;23;20403;-89
2023/09/11 12:24:35;;;;;;;4.60;4.30;;;25.40;93.50;;;;;;6199893;23;20399;-89
2023/09/11 12:27:02;;;;;;;5.33;4.17;;;25.40;93.10;;;;;;6186821;23;20421;-89
2023/09/11 12:29:32;;;;;;;4.57;4.10;;;25.40;93.00;;;;;;6186660;23;20457;-88
2023/09/11 12:31:59;;;;;;;4.47;4.10;;;25.40;93.00;;;;;;6186526;23;20407;-89
2023/09/11 12:34:27;;;;;;;6.00;4.50;;;25.40;93.00;;;;;;6185547;23;20498;-88
2023/09/11 12:36:54;;;;;;;8.23;4.80;;;25.40;93.20;;;;;;6185561;23;20886;-89
2023/09/11 12:39:22;;;;;;;5.00;4.60;;;25.40;93.10;;;;;;6186408;23;20470;-88
2023/09/11 12:41:49;;;;;;;4.70;4.30;;;25.40;93.10;;;;;;6185966;23;20805;-88
2023/09/11 12:44:16;;;;;;;5.00;4.20;;;25.40;93.00;;;;;;6186419;23;20486;-88
2023/09/11 12:46:43;;;;;;;4.83;4.43;;;25.40;93.00;;;;;;6185921;23;20409;-88
2023/09/11 12:49:09;;;;;;;4.30;4.00;;;25.40;93.00;;;;;;6185653;23;20442;-88
2023/09/11 12:51:37;;;;;;;4.50;3.83;;;25.40;93.00;;;;;;6185918;23;20494;-89
2023/09/11 12:54:04;;;;;;;5.00;4.40;;;25.40;93.00;;;;;;6186516;23;20485;-88